Time;durP1;ratioP1;P1;durP2;ratioP2;P2;SDS_P1;SDS_P2;PMS_P1;PMS_P2;Temp;Humidity;BMP_temperature;BMP_pressure;BME280_temperature;BME280_humidity;BME280_pressure;Samples;Min_cycle;Max_cycle;Signal;HPM_P1;HPM_P2
2022/10/19 00:01:13;;;;;;;0.25;0.10;;;;;;;;;;4193247;28;20459;-41
2022/10/19 00:03:14;;;;;;;0.10;0.10;;;;;;;;;;4184000;28;20057;-40
2022/10/19 00:05:16;;;;;;;0.17;0.10;;;;;;;;;;4195174;28;20366;-40
2022/10/19 00:07:17;;;;;;;0.30;0.10;;;;;;;;;;4195676;28;20048;-40
2022/10/19 00:09:18;;;;;;;0.20;0.20;;;;;;;;;;4193954;28;20057;-41
2022/10/19 00:11:20;;;;;;;0.55;0.20;;;;;;;;;;4179139;28;20079;-39
2022/10/19 00:13:21;;;;;;;0.32;0.10;;;;;;;;;;4194409;28;20100;-40
2022/10/19 00:15:22;;;;;;;0.10;0.10;;;;;;;;;;4190099;28;20454;-40
2022/10/19 00:17:24;;;;;;;0.20;0.20;;;;;;;;;;4182030;28;20102;-40
2022/10/19 00:19:26;;;;;;;0.17;0.10;;;;;;;;;;4193987;28;20553;-40
2022/10/19 00:21:27;;;;;;;0.52;0.20;;;;;;;;;;4188699;28;20099;-40
2022/10/19 00:23:29;;;;;;;0.40;0.20;;;;;;;;;;4177867;28;20064;-40
2022/10/19 00:25:30;;;;;;;0.10;0.10;;;;;;;;;;4179053;28;20404;-42
2022/10/19 00:27:32;;;;;;;0.30;0.20;;;;;;;;;;4178775;28;20080;-40
2022/10/19 00:29:33;;;;;;;0.10;0.10;;;;;;;;;;4194310;28;20048;-40
2022/10/19 00:31:35;;;;;;;0.50;0.30;;;;;;;;;;4186281;28;20107;-40
2022/10/19 00:33:36;;;;;;;0.20;0.20;;;;;;;;;;4179082;28;20052;-40
2022/10/19 00:35:41;;;;;;;0.13;0.10;;;;;;;;;;4159660;28;20046;-40
2022/10/19 00:37:42;;;;;;;0.30;0.10;;;;;;;;;;4190084;28;20060;-40
2022/10/19 00:39:43;;;;;;;0.10;0.10;;;;;;;;;;4178839;28;20103;-40
2022/10/19 00:41:46;;;;;;;0.20;0.20;;;;;;;;;;4178919;28;20106;-40
2022/10/19 00:44:03;;;;;;;0.10;0.10;;;;;;;;;;4178463;28;20166;-40
2022/10/19 00:46:04;;;;;;;0.10;0.10;;;;;;;;;;4177717;28;20404;-40
2022/10/19 00:48:07;;;;;;;0.15;0.13;;;;;;;;;;4189320;28;20053;-41
2022/10/19 00:50:09;;;;;;;0.32;0.30;;;;;;;;;;4194872;28;20052;-41
2022/10/19 00:52:15;;;;;;;0.13;0.10;;;;;;;;;;4183448;28;20075;-40
2022/10/19 00:54:17;;;;;;;0.15;0.08;;;;;;;;;;4180434;28;20130;-40
2022/10/19 00:56:18;;;;;;;0.10;0.10;;;;;;;;;;4191810;28;20048;-40
2022/10/19 00:58:20;;;;;;;0.13;0.10;;;;;;;;;;4184118;28;20118;-40
2022/10/19 01:00:21;;;;;;;0.10;0.10;;;;;;;;;;4181292;28;20087;-41
2022/10/19 01:02:22;;;;;;;0.38;0.20;;;;;;;;;;4182087;28;20131;-41
2022/10/19 01:04:25;;;;;;;0.20;0.10;;;;;;;;;;4196392;28;20052;-40
2022/10/19 01:06:27;;;;;;;0.63;0.43;;;;;;;;;;4196633;28;20110;-40
2022/10/19 01:08:29;;;;;;;0.10;0.10;;;;;;;;;;4182393;28;20045;-40
2022/10/19 01:10:48;;;;;;;0.15;0.15;;;;;;;;;;4185651;28;20098;-40
2022/10/19 01:13:27;;;;;;;0.20;0.20;;;;;;;;;;4169791;28;20079;-40
2022/10/19 01:15:40;;;;;;;0.30;0.17;;;;;;;;;;4186957;28;20044;-40
2022/10/19 01:17:51;;;;;;;0.20;0.15;;;;;;;;;;4180238;28;20521;-40
2022/10/19 01:20:15;;;;;;;0.20;0.10;;;;;;;;;;4195807;28;20060;-40
2022/10/19 01:22:25;;;;;;;0.20;0.10;;;;;;;;;;4180330;28;20049;-40
2022/10/19 01:24:36;;;;;;;0.65;0.10;;;;;;;;;;4184693;28;20096;-40
2022/10/19 01:26:46;;;;;;;0.10;0.10;;;;;;;;;;4194890;28;20079;-39
2022/10/19 01:29:32;;;;;;;0.22;0.10;;;;;;;;;;4181393;28;20126;-40
2022/10/19 01:31:43;;;;;;;0.10;0.10;;;;;;;;;;4180049;28;20087;-40
2022/10/19 01:33:53;;;;;;;0.52;0.10;;;;;;;;;;4188159;28;20411;-40
2022/10/19 01:36:01;;;;;;;;;;;;;;;;;;4169162;28;20053;-39
2022/10/19 01:38:10;;;;;;;0.17;0.00;;;;;;;;;;4183523;28;19928;-40
2022/10/19 01:40:21;;;;;;;0.50;0.20;;;;;;;;;;4190382;28;20111;-40
2022/10/19 01:42:27;;;;;;;0.00;0.00;;;;;;;;;;4192277;28;20061;-40
2022/10/19 01:44:52;;;;;;;0.20;0.10;;;;;;;;;;4196088;28;20064;-40
2022/10/19 01:46:59;;;;;;;0.75;0.20;;;;;;;;;;4190805;28;20064;-40
2022/10/19 01:49:10;;;;;;;0.10;0.10;;;;;;;;;;4179702;28;20053;-40
2022/10/19 01:51:22;;;;;;;0.10;0.10;;;;;;;;;;4179865;28;20056;-39
2022/10/19 01:53:26;;;;;;;0.30;0.10;;;;;;;;;;4179839;28;20443;-40
2022/10/19 01:55:27;;;;;;;0.20;0.10;;;;;;;;;;4195867;28;20052;-39
2022/10/19 01:57:36;;;;;;;0.82;0.13;;;;;;;;;;4196298;28;20101;-40
2022/10/19 01:59:38;;;;;;;0.00;0.00;;;;;;;;;;4200154;28;20097;-40
2022/10/19 02:01:43;;;;;;;0.60;0.13;;;;;;;;;;4179770;28;20440;-40
2022/10/19 02:03:44;;;;;;;0.38;0.10;;;;;;;;;;4189098;28;20048;-40
2022/10/19 02:05:46;;;;;;;0.45;0.10;;;;;;;;;;4183278;28;20106;-40
2022/10/19 02:07:55;;;;;;;0.32;0.13;;;;;;;;;;4159361;28;20058;-41
2022/10/19 02:09:56;;;;;;;0.20;0.20;;;;;;;;;;4170488;28;20065;-41
2022/10/19 02:12:01;;;;;;;0.35;0.35;;;;;;;;;;4191737;28;20499;-40
2022/10/19 02:14:09;;;;;;;0.40;0.10;;;;;;;;;;4196223;28;20172;-40
2022/10/19 02:16:35;;;;;;;0.22;0.22;;;;;;;;;;4179506;28;20527;-40
2022/10/19 02:18:40;;;;;;;0.20;0.10;;;;;;;;;;4184404;28;20119;-40
2022/10/19 02:20:41;;;;;;;0.10;0.10;;;;;;;;;;4182099;28;20053;-40
2022/10/19 02:22:42;;;;;;;0.20;0.13;;;;;;;;;;4197148;28;20066;-40
2022/10/19 02:24:44;;;;;;;0.10;0.10;;;;;;;;;;4189070;28;20049;-42
2022/10/19 02:26:45;;;;;;;0.52;0.10;;;;;;;;;;4191460;28;20566;-40
2022/10/19 02:28:46;;;;;;;0.38;0.17;;;;;;;;;;4196649;28;20102;-41
2022/10/19 02:30:48;;;;;;;0.30;0.20;;;;;;;;;;4195801;28;20118;-40
2022/10/19 02:32:50;;;;;;;0.10;0.10;;;;;;;;;;4190011;28;20554;-39
2022/10/19 02:34:51;;;;;;;0.40;0.38;;;;;;;;;;4162058;28;20151;-40
2022/10/19 02:36:53;;;;;;;0.00;0.00;;;;;;;;;;4180337;28;20459;-40
2022/10/19 02:38:54;;;;;;;0.10;0.03;;;;;;;;;;4178589;28;20095;-40
2022/10/19 02:41:05;;;;;;;0.10;0.10;;;;;;;;;;4195659;28;20064;-40
2022/10/19 02:43:10;;;;;;;0.10;0.10;;;;;;;;;;4190736;28;20052;-40
2022/10/19 02:45:17;;;;;;;0.10;0.10;;;;;;;;;;4194958;28;20086;-40
2022/10/19 02:47:23;;;;;;;0.30;0.10;;;;;;;;;;4196609;28;20500;-40
2022/10/19 02:49:26;;;;;;;0.10;0.10;;;;;;;;;;4195046;28;20495;-40
2022/10/19 02:51:30;;;;;;;0.40;0.40;;;;;;;;;;4185107;28;20064;-40
2022/10/19 02:53:32;;;;;;;0.10;0.10;;;;;;;;;;4195044;28;20052;-39
2022/10/19 02:55:33;;;;;;;0.10;0.10;;;;;;;;;;4181760;28;20089;-40
2022/10/19 02:57:35;;;;;;;0.20;0.20;;;;;;;;;;4188288;28;20052;-40
2022/10/19 02:59:36;;;;;;;0.10;0.10;;;;;;;;;;4185732;28;20084;-40
2022/10/19 03:01:37;;;;;;;0.52;0.13;;;;;;;;;;4176320;28;20406;-40
2022/10/19 03:03:39;;;;;;;0.20;0.10;;;;;;;;;;4196236;28;20100;-42
2022/10/19 03:05:40;;;;;;;0.10;0.10;;;;;;;;;;4188787;28;20045;-40
2022/10/19 03:07:42;;;;;;;0.10;0.10;;;;;;;;;;4189553;28;20057;-42
2022/10/19 03:09:46;;;;;;;0.63;0.22;;;;;;;;;;4195828;28;20052;-41
2022/10/19 03:11:48;;;;;;;0.20;0.10;;;;;;;;;;4179890;28;20053;-40
2022/10/19 03:13:49;;;;;;;0.10;0.08;;;;;;;;;;4186408;28;20074;-39
2022/10/19 03:15:51;;;;;;;0.47;0.17;;;;;;;;;;4186452;28;20422;-40
2022/10/19 03:17:52;;;;;;;0.17;0.10;;;;;;;;;;4192460;28;20093;-40
2022/10/19 03:19:54;;;;;;;0.55;0.10;;;;;;;;;;4193320;28;20110;-39
2022/10/19 03:21:55;;;;;;;0.13;0.13;;;;;;;;;;4185089;28;20052;-41
2022/10/19 03:23:56;;;;;;;0.10;0.10;;;;;;;;;;4187838;28;20118;-40
2022/10/19 03:25:57;;;;;;;0.38;0.10;;;;;;;;;;4179713;28;20053;-40
2022/10/19 03:27:59;;;;;;;0.10;0.10;;;;;;;;;;4180575;28;20053;-39
2022/10/19 03:30:00;;;;;;;0.35;0.15;;;;;;;;;;4196112;28;20053;-40
2022/10/19 03:32:01;;;;;;;0.00;0.00;;;;;;;;;;4188723;28;20064;-40
2022/10/19 03:34:02;;;;;;;0.10;0.10;;;;;;;;;;4177923;28;20057;-40
2022/10/19 03:36:16;;;;;;;0.10;0.10;;;;;;;;;;4187644;28;20438;-41
2022/10/19 03:38:17;;;;;;;0.10;0.10;;;;;;;;;;4179598;28;20143;-40
2022/10/19 03:40:18;;;;;;;0.10;0.10;;;;;;;;;;4170036;28;20048;-40
2022/10/19 03:42:20;;;;;;;0.32;0.10;;;;;;;;;;4184837;28;20048;-40
2022/10/19 03:44:21;;;;;;;0.35;0.10;;;;;;;;;;4193627;28;20444;-40
2022/10/19 03:46:23;;;;;;;0.85;0.30;;;;;;;;;;4195942;28;20048;-40
2022/10/19 03:48:24;;;;;;;0.20;0.10;;;;;;;;;;4188707;28;20049;-40
2022/10/19 03:50:26;;;;;;;0.10;0.10;;;;;;;;;;4178892;28;20451;-40
2022/10/19 03:52:28;;;;;;;0.43;0.20;;;;;;;;;;4192730;28;20056;-41
2022/10/19 03:54:29;;;;;;;0.22;0.10;;;;;;;;;;4183621;28;20446;-40
2022/10/19 03:56:32;;;;;;;0.30;0.20;;;;;;;;;;4194500;28;20349;-40
2022/10/19 03:58:35;;;;;;;1.65;0.10;;;;;;;;;;4186048;28;20049;-40
2022/10/19 04:00:36;;;;;;;0.15;0.10;;;;;;;;;;4192466;28;20063;-41
2022/10/19 04:02:37;;;;;;;0.13;0.10;;;;;;;;;;4179331;28;20064;-39
2022/10/19 04:04:39;;;;;;;0.13;0.10;;;;;;;;;;4183174;28;20153;-40
2022/10/19 04:06:42;;;;;;;0.10;0.10;;;;;;;;;;4195823;28;20060;-40
2022/10/19 04:08:43;;;;;;;0.10;0.10;;;;;;;;;;4183414;28;20053;-40
2022/10/19 04:10:45;;;;;;;0.22;0.10;;;;;;;;;;4194088;28;20553;-40
2022/10/19 04:12:46;;;;;;;0.08;0.08;;;;;;;;;;4190722;28;20045;-40
2022/10/19 04:14:47;;;;;;;0.30;0.10;;;;;;;;;;4187275;28;20060;-40
2022/10/19 04:16:49;;;;;;;0.20;0.13;;;;;;;;;;4195904;28;20064;-40
2022/10/19 04:18:50;;;;;;;0.10;0.10;;;;;;;;;;4194323;28;20098;-40
2022/10/19 04:21:00;;;;;;;0.10;0.10;;;;;;;;;;4183405;28;20109;-40
2022/10/19 04:23:01;;;;;;;0.10;0.10;;;;;;;;;;4195940;28;20086;-40
2022/10/19 04:25:03;;;;;;;0.15;0.13;;;;;;;;;;4195654;28;20052;-40
2022/10/19 04:27:05;;;;;;;0.10;0.10;;;;;;;;;;4182017;28;20510;-40
2022/10/19 04:29:06;;;;;;;0.05;0.05;;;;;;;;;;4186482;28;20508;-41
2022/10/19 04:31:09;;;;;;;0.68;0.10;;;;;;;;;;4198891;28;20052;-40
2022/10/19 04:33:11;;;;;;;0.20;0.20;;;;;;;;;;4188484;28;20053;-40
2022/10/19 04:35:12;;;;;;;0.10;0.10;;;;;;;;;;4181359;28;20060;-40
2022/10/19 04:37:13;;;;;;;0.17;0.15;;;;;;;;;;4182441;28;20103;-40
2022/10/19 04:39:15;;;;;;;0.40;0.20;;;;;;;;;;4181966;28;20493;-41
2022/10/19 04:41:18;;;;;;;0.10;0.10;;;;;;;;;;4192026;28;20052;-40
2022/10/19 04:43:19;;;;;;;0.10;0.10;;;;;;;;;;4198637;28;20114;-39
2022/10/19 04:45:20;;;;;;;0.20;0.10;;;;;;;;;;4183625;28;20099;-41
2022/10/19 04:47:21;;;;;;;0.30;0.10;;;;;;;;;;4198776;28;20056;-40
2022/10/19 04:49:23;;;;;;;0.20;0.20;;;;;;;;;;4189258;28;20098;-40
2022/10/19 04:51:25;;;;;;;0.32;0.10;;;;;;;;;;4181136;28;20446;-40
2022/10/19 04:53:26;;;;;;;0.43;0.17;;;;;;;;;;4181794;28;20048;-41
2022/10/19 04:55:28;;;;;;;0.00;0.00;;;;;;;;;;4195168;28;20045;-40
2022/10/19 04:57:29;;;;;;;0.70;0.20;;;;;;;;;;4184493;28;20052;-40
2022/10/19 04:59:30;;;;;;;0.03;0.03;;;;;;;;;;4192050;28;20053;-40
2022/10/19 05:01:31;;;;;;;0.43;0.10;;;;;;;;;;4191082;28;20086;-42
2022/10/19 05:03:32;;;;;;;0.17;0.10;;;;;;;;;;4183674;28;20057;-42
2022/10/19 05:05:34;;;;;;;0.90;0.10;;;;;;;;;;4180229;28;20126;-39
2022/10/19 05:07:35;;;;;;;0.15;0.10;;;;;;;;;;4194980;28;20090;-40
2022/10/19 05:09:39;;;;;;;0.10;0.10;;;;;;;;;;4195178;28;20473;-42
2022/10/19 05:11:40;;;;;;;0.30;0.10;;;;;;;;;;4196289;28;20052;-41
2022/10/19 05:13:43;;;;;;;0.10;0.10;;;;;;;;;;4180296;28;20439;-42
2022/10/19 05:15:54;;;;;;;0.70;0.20;;;;;;;;;;4183140;28;20106;-42
2022/10/19 05:17:55;;;;;;;0.10;0.10;;;;;;;;;;4186700;28;20053;-42
2022/10/19 05:19:56;;;;;;;0.22;0.00;;;;;;;;;;4179642;28;20083;-42
2022/10/19 05:21:57;;;;;;;0.20;0.20;;;;;;;;;;4192866;28;20121;-41
2022/10/19 05:23:59;;;;;;;0.10;0.10;;;;;;;;;;4179335;28;20052;-41
2022/10/19 05:26:01;;;;;;;0.20;0.10;;;;;;;;;;4186479;28;20110;-42
2022/10/19 05:28:03;;;;;;;0.40;0.20;;;;;;;;;;4183095;28;20098;-42
2022/10/19 05:30:05;;;;;;;0.30;0.20;;;;;;;;;;4191610;28;20545;-42
2022/10/19 05:32:07;;;;;;;0.25;0.10;;;;;;;;;;4185380;28;20389;-42
2022/10/19 05:34:08;;;;;;;0.20;0.13;;;;;;;;;;4183945;28;20060;-42
2022/10/19 05:36:14;;;;;;;0.45;0.17;;;;;;;;;;4192267;28;20103;-42
2022/10/19 05:38:15;;;;;;;0.55;0.10;;;;;;;;;;4182880;28;20053;-42
2022/10/19 05:40:16;;;;;;;0.00;0.00;;;;;;;;;;4181020;28;20128;-41
2022/10/19 05:42:18;;;;;;;0.10;0.10;;;;;;;;;;4179132;28;20048;-42
2022/10/19 05:44:21;;;;;;;0.30;0.00;;;;;;;;;;4191971;28;20056;-42
2022/10/19 05:46:24;;;;;;;0.17;0.10;;;;;;;;;;4181223;28;20392;-42
2022/10/19 05:48:25;;;;;;;0.88;0.10;;;;;;;;;;4182286;28;20056;-42
2022/10/19 05:50:26;;;;;;;0.20;0.20;;;;;;;;;;4188338;28;20057;-42
2022/10/19 05:52:27;;;;;;;0.20;0.10;;;;;;;;;;4178871;28;20489;-41
2022/10/19 05:54:29;;;;;;;0.20;0.20;;;;;;;;;;4191834;28;20056;-41
2022/10/19 05:56:31;;;;;;;0.43;0.10;;;;;;;;;;4189393;28;20561;-42
2022/10/19 05:58:32;;;;;;;0.25;0.10;;;;;;;;;;4178841;28;20056;-42
2022/10/19 06:00:33;;;;;;;0.17;0.17;;;;;;;;;;4187483;28;20048;-41
2022/10/19 06:02:35;;;;;;;1.02;0.20;;;;;;;;;;4185526;28;20064;-41
2022/10/19 06:04:36;;;;;;;0.30;0.15;;;;;;;;;;4192669;28;20056;-42
2022/10/19 06:06:37;;;;;;;0.30;0.20;;;;;;;;;;4186964;28;20554;-41
2022/10/19 06:08:39;;;;;;;0.30;0.10;;;;;;;;;;4192129;28;20064;-42
2022/10/19 06:10:40;;;;;;;0.88;0.30;;;;;;;;;;4192121;28;20090;-42
2022/10/19 06:12:42;;;;;;;0.20;0.10;;;;;;;;;;4184839;28;20129;-42
2022/10/19 06:14:43;;;;;;;0.52;0.13;;;;;;;;;;4183715;28;20060;-43
2022/10/19 06:16:45;;;;;;;1.88;0.10;;;;;;;;;;4187830;28;20049;-43
2022/10/19 06:18:46;;;;;;;1.45;0.45;;;;;;;;;;4186858;28;20057;-42
2022/10/19 06:20:47;;;;;;;0.85;0.43;;;;;;;;;;4180889;28;20045;-42
2022/10/19 06:22:49;;;;;;;0.40;0.17;;;;;;;;;;4184968;28;20475;-42
2022/10/19 06:24:50;;;;;;;0.93;0.15;;;;;;;;;;4183401;28;20067;-42
2022/10/19 06:26:52;;;;;;;0.82;0.50;;;;;;;;;;4180807;28;20049;-41
2022/10/19 06:28:55;;;;;;;0.32;0.20;;;;;;;;;;4188416;28;20052;-42
2022/10/19 06:30:57;;;;;;;2.20;0.25;;;;;;;;;;4183994;28;20053;-42
2022/10/19 06:32:58;;;;;;;1.40;0.20;;;;;;;;;;4187340;28;20496;-42
2022/10/19 06:34:59;;;;;;;0.20;0.10;;;;;;;;;;4190098;28;20106;-41
2022/10/19 06:37:00;;;;;;;0.20;0.10;;;;;;;;;;4183993;28;20053;-43
2022/10/19 06:39:02;;;;;;;0.43;0.20;;;;;;;;;;4184307;28;20586;-42
2022/10/19 06:41:04;;;;;;;1.30;0.15;;;;;;;;;;4184109;28;20542;-41
2022/10/19 06:43:05;;;;;;;0.50;0.30;;;;;;;;;;4190132;28;20057;-42
2022/10/19 06:45:08;;;;;;;0.90;0.30;;;;;;;;;;4190607;28;20052;-42
2022/10/19 06:47:09;;;;;;;1.20;0.20;;;;;;;;;;4181825;28;20056;-42
2022/10/19 06:49:12;;;;;;;0.82;0.20;;;;;;;;;;4178189;28;20391;-43
2022/10/19 06:51:13;;;;;;;0.60;0.20;;;;;;;;;;4178861;28;20068;-43
2022/10/19 06:53:15;;;;;;;0.25;0.17;;;;;;;;;;4179625;28;20071;-42
2022/10/19 06:55:16;;;;;;;0.20;0.10;;;;;;;;;;4183609;28;20045;-42
2022/10/19 06:57:18;;;;;;;0.98;0.20;;;;;;;;;;4179674;28;20064;-42
2022/10/19 06:59:19;;;;;;;0.30;0.10;;;;;;;;;;4175321;28;20502;-43
2022/10/19 07:01:21;;;;;;;0.28;0.10;;;;;;;;;;4168641;28;20106;-42
2022/10/19 07:03:23;;;;;;;1.67;0.20;;;;;;;;;;4172927;28;20060;-42
2022/10/19 07:05:25;;;;;;;1.38;0.20;;;;;;;;;;4177367;28;20057;-42
2022/10/19 07:07:26;;;;;;;2.45;0.40;;;;;;;;;;4179876;28;20087;-42
2022/10/19 07:09:28;;;;;;;0.40;0.10;;;;;;;;;;4178823;28;21183;-42
2022/10/19 07:11:29;;;;;;;0.50;0.10;;;;;;;;;;4179574;28;20052;-42
2022/10/19 07:13:30;;;;;;;1.10;0.47;;;;;;;;;;4181323;28;20463;-43
2022/10/19 07:15:31;;;;;;;1.75;0.28;;;;;;;;;;4178830;28;20102;-42
2022/10/19 07:17:33;;;;;;;0.93;0.30;;;;;;;;;;4180549;28;20103;-43
2022/10/19 07:19:35;;;;;;;0.80;0.20;;;;;;;;;;4179688;28;20053;-42
2022/10/19 07:21:40;;;;;;;0.85;0.20;;;;;;;;;;4174778;28;21930;-42
2022/10/19 07:23:43;;;;;;;0.38;0.20;;;;;;;;;;4177481;28;20110;-42
2022/10/19 07:25:44;;;;;;;0.60;0.17;;;;;;;;;;4179230;28;20082;-42
2022/10/19 07:27:46;;;;;;;1.25;0.25;;;;;;;;;;4169347;28;20072;-43
2022/10/19 07:29:47;;;;;;;3.03;0.40;;;;;;;;;;4174533;28;20102;-42
2022/10/19 07:31:49;;;;;;;0.20;0.20;;;;;;;;;;4175540;28;20898;-42
2022/10/19 07:33:54;;;;;;;0.20;0.20;;;;;;;;;;4174155;28;20109;-42
2022/10/19 07:36:03;;;;;;;1.02;0.20;;;;;;;;;;4182607;28;20463;-42
2022/10/19 07:38:04;;;;;;;0.50;0.20;;;;;;;;;;4183820;28;20102;-42
2022/10/19 07:40:06;;;;;;;0.65;0.20;;;;;;;;;;4178515;28;20044;-42
2022/10/19 07:42:08;;;;;;;1.35;0.47;;;;;;;;;;4175691;28;20052;-44
2022/10/19 07:44:10;;;;;;;3.35;0.32;;;;;;;;;;4182184;28;20106;-44
2022/10/19 07:46:17;;;;;;;0.20;0.10;;;;;;;;;;4179314;28;20090;-43
2022/10/19 07:48:18;;;;;;;2.42;0.40;;;;;;;;;;4172779;28;20056;-41
2022/10/19 07:50:19;;;;;;;1.38;0.52;;;;;;;;;;4174405;28;20374;-41
2022/10/19 07:52:20;;;;;;;0.77;0.40;;;;;;;;;;4180429;28;21664;-41
2022/10/19 07:54:23;;;;;;;1.90;0.43;;;;;;;;;;4173690;28;20495;-40
2022/10/19 07:56:25;;;;;;;1.85;0.30;;;;;;;;;;4147134;28;20048;-41
2022/10/19 07:58:27;;;;;;;1.73;0.30;;;;;;;;;;4181510;28;20098;-42
2022/10/19 08:00:28;;;;;;;0.95;0.38;;;;;;;;;;4178273;28;20142;-47
2022/10/19 08:02:29;;;;;;;0.55;0.10;;;;;;;;;;4181140;28;20119;-42
2022/10/19 08:04:31;;;;;;;3.08;0.30;;;;;;;;;;4186493;28;20453;-42
2022/10/19 08:06:32;;;;;;;2.10;0.20;;;;;;;;;;4180113;28;20052;-43
2022/10/19 08:08:33;;;;;;;0.85;0.20;;;;;;;;;;4180865;28;20057;-43
2022/10/19 08:10:35;;;;;;;2.28;0.20;;;;;;;;;;4188158;28;20060;-42
2022/10/19 08:12:36;;;;;;;2.80;0.20;;;;;;;;;;4180924;28;20056;-42
2022/10/19 08:14:38;;;;;;;1.38;0.40;;;;;;;;;;4180562;28;20060;-42
2022/10/19 08:16:43;;;;;;;0.60;0.20;;;;;;;;;;4182586;28;20052;-43
2022/10/19 08:18:44;;;;;;;1.13;0.20;;;;;;;;;;4180065;28;20055;-43
2022/10/19 08:20:45;;;;;;;0.43;0.17;;;;;;;;;;4186031;28;20497;-43
2022/10/19 08:22:47;;;;;;;1.65;0.22;;;;;;;;;;4177325;28;20385;-43
2022/10/19 08:24:48;;;;;;;2.33;0.35;;;;;;;;;;4180889;28;20068;-42
2022/10/19 08:26:50;;;;;;;0.30;0.22;;;;;;;;;;4162967;28;20053;-41
2022/10/19 08:28:51;;;;;;;2.05;0.30;;;;;;;;;;4170121;28;20138;-43
2022/10/19 08:30:56;;;;;;;1.60;0.22;;;;;;;;;;4185319;28;20143;-43
2022/10/19 08:32:58;;;;;;;1.15;0.22;;;;;;;;;;4186772;28;20052;-43
2022/10/19 08:34:59;;;;;;;1.50;0.20;;;;;;;;;;4178744;28;20060;-42
2022/10/19 08:37:02;;;;;;;2.78;0.20;;;;;;;;;;4181653;28;20053;-42
2022/10/19 08:39:05;;;;;;;1.65;0.30;;;;;;;;;;4184110;28;20418;-43
2022/10/19 08:41:33;;;;;;;0.10;0.10;;;;;;;;;;4188187;28;20052;-42
2022/10/19 08:43:37;;;;;;;0.98;0.22;;;;;;;;;;4188599;28;20551;-43
2022/10/19 08:45:46;;;;;;;0.10;0.10;;;;;;;;;;4183624;28;20586;-42
2022/10/19 08:48:02;;;;;;;0.47;0.20;;;;;;;;;;4181482;28;20055;-42
2022/10/19 08:50:19;;;;;;;0.60;0.40;;;;;;;;;;4172525;28;20064;-43
2022/10/19 08:52:23;;;;;;;0.85;0.20;;;;;;;;;;4179168;28;20048;-43
2022/10/19 08:54:34;;;;;;;0.50;0.10;;;;;;;;;;4177066;28;20169;-42
2022/10/19 08:56:39;;;;;;;0.63;0.13;;;;;;;;;;4178698;28;20434;-43
2022/10/19 08:59:00;;;;;;;2.78;0.22;;;;;;;;;;4177863;28;20435;-43
2022/10/19 09:01:20;;;;;;;0.73;0.30;;;;;;;;;;4175856;28;20129;-42
2022/10/19 09:03:37;;;;;;;1.23;0.30;;;;;;;;;;4181740;28;20476;-45
2022/10/19 09:05:51;;;;;;;2.35;0.20;;;;;;;;;;4178701;28;20419;-44
2022/10/19 09:07:53;;;;;;;1.73;0.40;;;;;;;;;;4192453;28;20124;-43
2022/10/19 09:10:17;;;;;;;0.55;0.25;;;;;;;;;;4190821;28;20053;-43
2022/10/19 09:12:31;;;;;;;3.00;0.40;;;;;;;;;;4175114;28;20718;-42
2022/10/19 09:14:44;;;;;;;0.57;0.13;;;;;;;;;;4179039;28;20770;-44
2022/10/19 09:16:45;;;;;;;0.28;0.22;;;;;;;;;;4174757;28;20122;-44
2022/10/19 09:18:46;;;;;;;0.50;0.30;;;;;;;;;;4182721;28;20109;-42
2022/10/19 09:20:49;;;;;;;0.20;0.10;;;;;;;;;;4185928;28;20083;-43
2022/10/19 09:23:22;;;;;;;0.20;0.20;;;;;;;;;;4162207;28;20057;-43
2022/10/19 09:25:24;;;;;;;0.47;0.10;;;;;;;;;;4153071;28;20087;-46
2022/10/19 09:27:33;;;;;;;0.22;0.20;;;;;;;;;;4181148;28;20602;-42
2022/10/19 09:29:38;;;;;;;0.20;0.15;;;;;;;;;;4182847;28;20494;-40
2022/10/19 09:31:42;;;;;;;0.38;0.38;;;;;;;;;;4172029;28;20056;-43
2022/10/19 09:33:47;;;;;;;0.95;0.10;;;;;;;;;;4176228;28;20591;-42
2022/10/19 09:35:48;;;;;;;0.32;0.10;;;;;;;;;;4186882;28;20049;-42
2022/10/19 09:37:50;;;;;;;0.52;0.20;;;;;;;;;;4187068;28;20053;-41
2022/10/19 09:39:51;;;;;;;0.10;0.10;;;;;;;;;;4199595;28;20135;-41
2022/10/19 09:41:55;;;;;;;0.45;0.10;;;;;;;;;;4190474;28;20053;-42
2022/10/19 09:43:56;;;;;;;1.73;0.17;;;;;;;;;;4178652;28;20063;-41
2022/10/19 09:46:04;;;;;;;0.15;0.10;;;;;;;;;;4185319;28;20107;-42
2022/10/19 09:48:17;;;;;;;0.20;0.10;;;;;;;;;;4182636;28;20069;-42
2022/10/19 09:50:21;;;;;;;0.30;0.13;;;;;;;;;;4187895;28;20056;-42
2022/10/19 09:52:35;;;;;;;0.22;0.10;;;;;;;;;;4172519;28;20098;-42
2022/10/19 09:54:37;;;;;;;0.25;0.20;;;;;;;;;;4189341;28;20101;-41
2022/10/19 09:56:39;;;;;;;0.68;0.10;;;;;;;;;;4184305;28;21087;-42
2022/10/19 09:58:49;;;;;;;0.60;0.20;;;;;;;;;;4189890;28;20553;-42
2022/10/19 10:00:54;;;;;;;1.75;0.20;;;;;;;;;;4183406;28;20436;-41
2022/10/19 10:02:56;;;;;;;0.90;0.13;;;;;;;;;;4182578;28;20193;-41
2022/10/19 10:05:13;;;;;;;0.57;0.20;;;;;;;;;;4183551;28;20052;-42
2022/10/19 10:07:16;;;;;;;0.30;0.10;;;;;;;;;;4180827;28;20063;-42
2022/10/19 10:09:21;;;;;;;0.10;0.10;;;;;;;;;;4199932;28;20059;-41
2022/10/19 10:11:29;;;;;;;0.20;0.10;;;;;;;;;;4182772;28;20052;-41
2022/10/19 10:13:35;;;;;;;0.10;0.10;;;;;;;;;;4187221;28;20114;-42
2022/10/19 10:15:47;;;;;;;0.22;0.20;;;;;;;;;;4196480;28;20067;-41
2022/10/19 10:17:49;;;;;;;0.80;0.20;;;;;;;;;;4187808;28;20439;-41
2022/10/19 10:20:03;;;;;;;0.70;0.22;;;;;;;;;;4180843;28;20048;-47
2022/10/19 10:22:23;;;;;;;0.45;0.20;;;;;;;;;;4178197;28;20213;-41
2022/10/19 10:24:27;;;;;;;3.20;0.25;;;;;;;;;;4178161;28;20087;-42
2022/10/19 10:26:28;;;;;;;0.50;0.20;;;;;;;;;;4183518;28;20531;-41
2022/10/19 10:28:30;;;;;;;0.30;0.20;;;;;;;;;;4188658;28;20057;-42
2022/10/19 10:30:35;;;;;;;1.42;0.30;;;;;;;;;;4190848;28;20083;-41
2022/10/19 10:32:38;;;;;;;0.85;0.30;;;;;;;;;;4179318;28;20048;-43
2022/10/19 10:34:42;;;;;;;0.45;0.20;;;;;;;;;;4177890;28;20094;-42
2022/10/19 10:36:48;;;;;;;1.38;0.20;;;;;;;;;;4181533;28;20053;-42
2022/10/19 10:38:52;;;;;;;0.30;0.30;;;;;;;;;;4185395;28;20048;-42
2022/10/19 10:40:59;;;;;;;0.25;0.20;;;;;;;;;;4161610;28;20146;-41
2022/10/19 10:43:04;;;;;;;0.20;0.17;;;;;;;;;;4180312;28;20714;-44
2022/10/19 10:45:19;;;;;;;0.32;0.20;;;;;;;;;;4181101;28;20917;-40
2022/10/19 10:47:21;;;;;;;0.35;0.25;;;;;;;;;;4176354;28;20465;-41
2022/10/19 10:49:28;;;;;;;0.57;0.20;;;;;;;;;;4184252;28;20102;-41
2022/10/19 10:51:35;;;;;;;0.15;0.10;;;;;;;;;;4183699;28;20049;-41
2022/10/19 10:53:39;;;;;;;0.70;0.22;;;;;;;;;;4185388;28;20056;-41
2022/10/19 10:55:54;;;;;;;0.90;0.30;;;;;;;;;;4182512;28;20102;-42
2022/10/19 10:58:14;;;;;;;1.58;0.25;;;;;;;;;;4181307;28;20052;-43
2022/10/19 11:00:16;;;;;;;;;;;;;;;;;;4186044;28;20061;-41
2022/10/19 11:02:35;;;;;;;1.02;0.10;;;;;;;;;;4170246;28;19958;-41
2022/10/19 11:04:41;;;;;;;1.20;0.10;;;;;;;;;;4174975;28;20046;-41
2022/10/19 11:06:46;;;;;;;0.40;0.20;;;;;;;;;;4178573;28;20073;-41
2022/10/19 11:08:58;;;;;;;1.92;0.20;;;;;;;;;;4174661;28;20163;-41
2022/10/19 11:11:05;;;;;;;0.20;0.10;;;;;;;;;;4187819;28;20874;-42
2022/10/19 11:13:48;;;;;;;0.55;0.20;;;;;;;;;;4156979;28;20565;-41
2022/10/19 11:16:28;;;;;;;1.48;0.35;;;;;;;;;;4155880;28;20051;-41
2022/10/19 11:18:41;;;;;;;;;;;;;;;;;;4173624;28;20115;-42
2022/10/19 11:20:52;;;;;;;0.57;0.15;;;;;;;;;;4178409;28;20021;-42
2022/10/19 11:23:01;;;;;;;1.05;0.17;;;;;;;;;;4177041;28;20056;-42
2022/10/19 11:25:24;;;;;;;1.48;0.30;;;;;;;;;;4172285;28;20087;-41
2022/10/19 11:27:28;;;;;;;0.30;0.10;;;;;;;;;;4173891;28;20052;-42
2022/10/19 11:29:44;;;;;;;0.47;0.13;;;;;;;;;;4181437;28;20424;-41
2022/10/19 11:31:50;;;;;;;0.45;0.20;;;;;;;;;;4185184;28;20141;-41
2022/10/19 11:34:24;;;;;;;0.52;0.20;;;;;;;;;;4176622;28;20060;-42
2022/10/19 11:36:28;;;;;;;0.17;0.15;;;;;;;;;;4188280;28;20053;-42
2022/10/19 11:38:44;;;;;;;0.57;0.13;;;;;;;;;;4188829;28;20059;-42
2022/10/19 11:40:59;;;;;;;0.52;0.20;;;;;;;;;;4181469;28;20056;-42
2022/10/19 11:43:38;;;;;;;0.55;0.20;;;;;;;;;;4175956;28;20052;-42
2022/10/19 11:45:54;;;;;;;0.73;0.23;;;;;;;;;;4181652;28;20059;-41
2022/10/19 11:47:58;;;;;;;0.80;0.10;;;;;;;;;;4186684;28;20052;-42
2022/10/19 11:50:24;;;;;;;0.65;0.20;;;;;;;;;;4176695;28;20089;-41
2022/10/19 11:52:54;;;;;;;0.17;0.10;;;;;;;;;;4180791;28;20383;-42
2022/10/19 11:55:20;;;;;;;2.38;0.20;;;;;;;;;;4161603;28;20103;-42
2022/10/19 11:57:31;;;;;;;0.35;0.10;;;;;;;;;;4181611;28;20141;-42
2022/10/19 11:59:59;;;;;;;3.13;0.57;;;;;;;;;;4173641;28;20893;-42
2022/10/19 12:02:20;;;;;;;0.45;0.35;;;;;;;;;;4172887;28;20056;-43
2022/10/19 12:04:49;;;;;;;1.40;0.20;;;;;;;;;;4172876;28;20056;-42
2022/10/19 12:06:51;;;;;;;0.65;0.10;;;;;;;;;;4182899;28;20305;-42
2022/10/19 12:09:14;;;;;;;0.73;0.32;;;;;;;;;;4180066;28;20048;-42
2022/10/19 12:11:46;;;;;;;0.08;0.00;;;;;;;;;;4182864;28;20052;-42
2022/10/19 12:13:51;;;;;;;0.70;0.20;;;;;;;;;;4178412;28;20454;-41
2022/10/19 12:15:54;;;;;;;0.60;0.10;;;;;;;;;;4174706;28;20551;-42
2022/10/19 12:17:59;;;;;;;1.65;0.20;;;;;;;;;;4183656;28;20084;-41
2022/10/19 12:20:05;;;;;;;0.60;0.20;;;;;;;;;;4178847;28;20058;-42
2022/10/19 12:22:12;;;;;;;1.02;0.10;;;;;;;;;;4176917;28;20052;-41
2022/10/19 12:24:17;;;;;;;0.55;0.20;;;;;;;;;;4170949;28;20057;-40
2022/10/19 12:26:20;;;;;;;0.17;0.05;;;;;;;;;;4179213;28;20052;-41
2022/10/19 12:28:27;;;;;;;0.40;0.10;;;;;;;;;;4178556;28;20443;-41
2022/10/19 12:30:28;;;;;;;0.50;0.17;;;;;;;;;;4185457;28;20059;-41
2022/10/19 12:32:31;;;;;;;0.75;0.10;;;;;;;;;;4184332;28;20052;-42